createdAt,value
2022-09-12T00:00:23.089Z,90.09
2022-09-12T00:02:55.771Z,90.14
2022-09-12T00:05:22.502Z,89.40
2022-09-12T00:07:49.651Z,89.14
2022-09-12T00:10:17.040Z,89.70
2022-09-12T00:12:43.522Z,89.25
2022-09-12T00:15:10.737Z,90.58
2022-09-12T00:17:39.026Z,90.73
2022-09-12T00:20:08.342Z,91.19
2022-09-12T00:22:35.804Z,91.19
2022-09-12T00:25:03.816Z,89.81
2022-09-12T00:27:30.351Z,90.63
2022-09-12T00:29:56.737Z,91.46
2022-09-12T00:32:23.442Z,90.84
2022-09-12T00:34:49.829Z,90.99
2022-09-12T00:37:16.275Z,90.60
2022-09-12T00:39:42.706Z,91.51
2022-09-12T00:42:11.741Z,91.51
2022-09-12T00:44:38.093Z,94.41
2022-09-12T00:47:10.630Z,94.78
2022-09-12T00:49:49.610Z,94.57
2022-09-12T00:52:33.709Z,93.32
2022-09-12T00:55:06.178Z,92.26
2022-09-12T00:57:38.184Z,91.68
2022-09-12T01:00:13.699Z,91.62
2022-09-12T01:02:41.108Z,90.88
2022-09-12T01:05:08.910Z,91.64
2022-09-12T01:07:39.996Z,91.06
2022-09-12T01:10:09.210Z,90.81
2022-09-12T01:12:39.424Z,90.61
2022-09-12T01:15:06.343Z,90.58
2022-09-12T01:17:52.753Z,90.53
2022-09-12T01:20:40.707Z,91.17
2022-09-12T01:23:19.139Z,91.10
2022-09-12T01:26:21.103Z,91.02
2022-09-12T01:28:53.483Z,90.61
2022-09-12T01:31:49.437Z,91.01
2022-09-12T01:34:30.633Z,91.04
2022-09-12T01:36:57.489Z,91.00
2022-09-12T01:39:55.214Z,91.39
2022-09-12T01:42:24.623Z,90.73
2022-09-12T01:45:07.499Z,91.04
2022-09-12T01:47:40.830Z,92.01
2022-09-12T01:50:09.163Z,91.34
2022-09-12T01:52:52.226Z,91.84
2022-09-12T01:55:24.951Z,91.04
2022-09-12T01:57:58.968Z,91.19
2022-09-12T02:00:26.140Z,90.72
2022-09-12T02:03:10.192Z,90.68
2022-09-12T02:05:42.058Z,91.23
2022-09-12T02:08:14.476Z,91.59
2022-09-12T02:10:47.673Z,91.63
2022-09-12T02:13:21.882Z,91.77
2022-09-12T02:15:54.407Z,92.11
2022-09-12T02:18:21.385Z,91.88
2022-09-12T02:20:50.220Z,91.48
2022-09-12T02:23:22.367Z,91.48
2022-09-12T02:25:54.642Z,91.58
2022-09-12T02:28:31.915Z,92.47
2022-09-12T02:31:01.058Z,92.03
2022-09-12T02:33:33.388Z,91.80
2022-09-12T02:36:23.892Z,92.29
2022-09-12T02:38:50.822Z,92.61
2022-09-12T02:41:20.429Z,92.44
2022-09-12T02:43:48.899Z,92.79
2022-09-12T02:46:22.685Z,92.56
2022-09-12T02:48:49.398Z,92.23
2022-09-12T02:51:20.315Z,92.40
2022-09-12T02:53:49.560Z,93.47
2022-09-12T02:56:24.823Z,94.68
2022-09-12T02:58:52.267Z,96.30
2022-09-12T03:01:49.311Z,98.31
2022-09-12T03:04:49.740Z,99.59
2022-09-12T03:07:54.863Z,100.00
2022-09-12T03:10:40.060Z,100.00
2022-09-12T03:13:39.066Z,100.00
2022-09-12T03:16:23.963Z,100.00
2022-09-12T03:19:09.080Z,100.00
2022-09-12T03:22:02.080Z,99.96
2022-09-12T03:24:41.695Z,100.00
2022-09-12T03:27:19.120Z,100.00
2022-09-12T03:29:47.967Z,100.00
2022-09-12T03:32:14.786Z,99.94
2022-09-12T03:34:41.254Z,99.56
2022-09-12T03:37:07.697Z,99.40
2022-09-12T03:39:34.143Z,99.87
2022-09-12T03:42:00.737Z,99.66
2022-09-12T03:44:27.260Z,100.00
2022-09-12T03:46:53.719Z,100.00
2022-09-12T03:49:20.161Z,100.00
2022-09-12T03:51:46.597Z,100.00
2022-09-12T03:54:13.349Z,99.88
2022-09-12T03:56:41.175Z,100.00
2022-09-12T03:59:07.719Z,100.00
2022-09-12T04:01:34.862Z,100.00
2022-09-12T04:04:01.777Z,100.00
2022-09-12T04:06:30.382Z,100.00
2022-09-12T04:08:57.076Z,100.00
2022-09-12T04:11:23.715Z,100.00
2022-09-12T04:13:50.172Z,100.00
2022-09-12T04:16:17.593Z,100.00
2022-09-12T04:18:44.433Z,100.00
2022-09-12T04:21:14.720Z,100.00
2022-09-12T04:23:41.240Z,100.00
2022-09-12T04:26:08.071Z,100.00
2022-09-12T04:28:36.356Z,100.00
2022-09-12T04:31:09.353Z,100.00
2022-09-12T04:33:36.464Z,100.00
2022-09-12T04:36:11.543Z,100.00
2022-09-12T04:38:38.682Z,100.00
2022-09-12T04:41:32.532Z,100.00
2022-09-12T04:44:03.088Z,100.00
2022-09-12T04:46:30.572Z,100.00
2022-09-12T04:48:57.307Z,100.00
2022-09-12T04:51:36.329Z,100.00
2022-09-12T04:54:08.476Z,100.00
2022-09-12T04:56:39.224Z,100.00
2022-09-12T04:59:06.204Z,100.00
2022-09-12T05:01:33.166Z,100.00
2022-09-12T05:04:00.015Z,100.00
2022-09-12T05:06:32.234Z,100.00
2022-09-12T05:09:00.541Z,100.00
2022-09-12T05:11:46.745Z,100.00
2022-09-12T05:14:16.585Z,100.00
2022-09-12T05:16:46.146Z,100.00
2022-09-12T05:19:15.654Z,100.00
2022-09-12T05:21:42.061Z,100.00
2022-09-12T05:24:11.377Z,100.00
2022-09-12T05:26:38.281Z,100.00
2022-09-12T05:29:07.003Z,100.00
2022-09-12T05:31:33.603Z,100.00
2022-09-12T05:34:00.128Z,100.00
2022-09-12T05:36:30.372Z,100.00
2022-09-12T05:38:57.553Z,100.00
2022-09-12T05:41:32.956Z,100.00
2022-09-12T05:44:02.066Z,100.00
2022-09-12T05:46:31.171Z,100.00
2022-09-12T05:49:01.956Z,100.00
2022-09-12T05:51:31.764Z,100.00
2022-09-12T05:54:00.813Z,100.00
2022-09-12T05:56:29.713Z,99.88
2022-09-12T05:59:01.979Z,99.10
2022-09-12T06:01:30.326Z,98.38
2022-09-12T06:04:00.809Z,98.31
2022-09-12T06:06:29.018Z,96.67
2022-09-12T06:09:00.801Z,95.40
2022-09-12T06:11:29.877Z,93.84
2022-09-12T06:13:58.163Z,92.87
2022-09-12T06:16:29.785Z,91.82
2022-09-12T06:19:07.486Z,91.64
2022-09-12T06:21:37.832Z,91.38
2022-09-12T06:24:04.450Z,91.09
2022-09-12T06:26:30.942Z,90.89
2022-09-12T06:28:59.231Z,89.85
2022-09-12T06:31:29.315Z,90.08
2022-09-12T06:33:57.344Z,90.38
2022-09-12T06:36:26.756Z,89.93
2022-09-12T06:39:13.928Z,89.73
2022-09-12T06:41:44.007Z,89.60
2022-09-12T06:44:14.956Z,89.08
2022-09-12T06:46:41.651Z,88.66
2022-09-12T06:49:08.316Z,88.65
2022-09-12T06:51:37.938Z,88.08
2022-09-12T06:54:05.438Z,87.94
2022-09-12T06:56:31.992Z,88.55
2022-09-12T06:58:59.365Z,88.04
2022-09-12T07:01:27.887Z,86.52
2022-09-12T07:03:57.063Z,86.62
2022-09-12T07:06:32.033Z,85.79
2022-09-12T07:08:59.996Z,84.99
2022-09-12T07:11:29.037Z,85.06
2022-09-12T07:13:56.547Z,84.85
2022-09-12T07:16:23.814Z,83.97
2022-09-12T07:18:52.144Z,83.96
2022-09-12T07:21:19.326Z,83.40
2022-09-12T07:23:46.164Z,82.77
2022-09-12T07:26:14.499Z,83.35
2022-09-12T07:28:41.532Z,81.58
2022-09-12T07:31:09.285Z,80.29
2022-09-12T07:33:36.020Z,78.78
2022-09-12T07:36:08.666Z,78.17
2022-09-12T07:38:35.227Z,77.22
2022-09-12T07:41:01.817Z,76.71
2022-09-12T07:43:28.359Z,76.21
2022-09-12T07:45:58.331Z,76.47
2022-09-12T07:48:24.950Z,76.90
2022-09-12T07:51:02.532Z,76.12
2022-09-12T07:53:43.260Z,77.07
2022-09-12T07:56:11.107Z,78.23
2022-09-12T07:58:40.321Z,78.75
2022-09-12T08:01:14.778Z,76.16
2022-09-12T08:03:42.594Z,76.05
2022-09-12T08:06:11.993Z,76.81
2022-09-12T08:08:38.768Z,76.52
2022-09-12T08:11:08.131Z,75.81
2022-09-12T08:13:36.677Z,76.80
2022-09-12T08:16:06.078Z,77.17
2022-09-12T08:18:34.266Z,75.66
2022-09-12T08:21:05.766Z,74.32
2022-09-12T08:23:32.560Z,72.69
2022-09-12T08:26:05.317Z,70.92
2022-09-12T08:28:34.991Z,71.72
2022-09-12T08:31:09.310Z,70.51
2022-09-12T08:33:36.002Z,70.92
2022-09-12T08:36:17.291Z,67.87
2022-09-12T08:38:46.612Z,63.00
2022-09-12T08:41:19.345Z,62.04
2022-09-12T08:44:08.223Z,59.79
2022-09-12T08:47:06.888Z,57.75
2022-09-12T08:49:48.365Z,57.44
2022-09-12T08:52:22.155Z,55.68
2022-09-12T08:54:50.027Z,58.76
2022-09-12T08:57:16.475Z,58.39
2022-09-12T08:59:44.903Z,60.91
2022-09-12T09:02:23.800Z,56.72
2022-09-12T09:04:53.332Z,57.36
2022-09-12T09:07:38.300Z,57.24
2022-09-12T09:10:34.259Z,56.48
2022-09-12T09:13:39.084Z,57.54
2022-09-12T09:16:30.560Z,56.22
2022-09-12T09:19:04.382Z,55.52
2022-09-12T09:21:54.727Z,55.10
2022-09-12T09:24:53.169Z,53.46
2022-09-12T09:27:39.876Z,54.25
2022-09-12T09:30:14.331Z,50.45
2022-09-12T09:32:41.582Z,53.97
2022-09-12T09:35:16.557Z,48.88
2022-09-12T09:37:51.672Z,53.11
2022-09-12T09:40:32.898Z,47.31
2022-09-12T09:43:28.926Z,49.11
2022-09-12T09:45:57.797Z,52.24
2022-09-12T09:48:28.947Z,48.38
2022-09-12T09:51:00.278Z,51.11
2022-09-12T09:53:33.726Z,49.03
2022-09-12T09:56:03.686Z,50.82
2022-09-12T09:58:35.187Z,47.46
2022-09-12T10:01:12.517Z,49.19
2022-09-12T10:03:40.808Z,52.28
2022-09-12T10:06:20.919Z,47.73
2022-09-12T10:08:49.013Z,49.17
2022-09-12T10:11:15.359Z,52.44
2022-09-12T10:13:56.878Z,47.20
2022-09-12T10:16:27.753Z,49.16
2022-09-12T10:18:56.815Z,45.49
2022-09-12T10:21:38.623Z,43.14
2022-09-12T10:24:18.336Z,43.46
2022-09-12T10:26:56.576Z,43.79
2022-09-12T10:29:32.241Z,44.04
2022-09-12T10:32:03.257Z,42.92
2022-09-12T10:34:34.387Z,46.07
2022-09-12T10:37:07.308Z,44.00
2022-09-12T10:39:36.246Z,45.83
2022-09-12T10:42:04.620Z,40.51
2022-09-12T10:44:35.427Z,40.83
2022-09-12T10:47:24.241Z,43.15
2022-09-12T10:49:50.981Z,45.15
2022-09-12T10:52:27.327Z,42.81
2022-09-12T10:54:54.381Z,45.11
2022-09-12T10:57:57.090Z,41.73
2022-09-12T11:00:27.955Z,43.14
2022-09-12T11:02:59.111Z,42.86
2022-09-12T11:05:44.272Z,42.74
2022-09-12T11:08:16.507Z,44.28
2022-09-12T11:10:59.763Z,42.67
2022-09-12T11:14:03.359Z,43.54
2022-09-12T11:16:42.664Z,44.55
2022-09-12T11:19:21.588Z,44.30
2022-09-12T11:21:52.668Z,43.07
2022-09-12T11:24:40.792Z,41.43
2022-09-12T11:27:26.721Z,41.06
2022-09-12T11:29:59.285Z,42.76
2022-09-12T11:32:35.565Z,43.80
2022-09-12T11:35:18.015Z,42.36
2022-09-12T11:38:07.255Z,42.85
2022-09-12T11:40:38.837Z,42.51
2022-09-12T11:43:27.269Z,43.58
2022-09-12T11:45:54.092Z,44.46
2022-09-12T11:48:42.087Z,44.48
2022-09-12T11:51:18.786Z,43.59
2022-09-12T11:53:53.821Z,43.36
2022-09-12T11:56:20.245Z,44.05
2022-09-12T11:58:54.750Z,44.55
2022-09-12T12:01:27.481Z,43.43
2022-09-12T12:03:55.446Z,45.84
2022-09-12T12:06:26.914Z,43.27
2022-09-12T12:08:54.075Z,43.57
2022-09-12T12:11:34.328Z,42.86
2022-09-12T12:14:04.601Z,43.36
2022-09-12T12:16:34.639Z,42.22
2022-09-12T12:19:10.464Z,44.20
2022-09-12T12:21:49.591Z,43.23
2022-09-12T12:24:19.057Z,44.48
2022-09-12T12:27:02.109Z,42.05
2022-09-12T12:29:33.866Z,43.92
2022-09-12T12:32:02.823Z,43.90
2022-09-12T12:34:46.521Z,44.92
2022-09-12T12:37:18.916Z,44.25
2022-09-12T12:39:48.446Z,45.28
2022-09-12T12:42:36.447Z,44.79
2022-09-12T12:45:08.962Z,42.66
2022-09-12T12:47:38.359Z,44.72
2022-09-12T12:50:10.932Z,44.47
2022-09-12T12:52:54.201Z,41.30
2022-09-12T12:55:45.511Z,41.87
2022-09-12T12:58:36.340Z,40.97
2022-09-12T13:01:16.836Z,42.55
2022-09-12T13:03:54.401Z,42.97
2022-09-12T13:06:29.588Z,42.82
2022-09-12T13:09:19.692Z,43.58
2022-09-12T13:11:47.078Z,44.74
2022-09-12T13:14:46.881Z,43.49
2022-09-12T13:17:25.990Z,42.32
2022-09-12T13:20:24.116Z,43.11
2022-09-12T13:22:51.770Z,42.64
2022-09-12T13:25:19.819Z,43.84
2022-09-12T13:28:04.500Z,43.36
2022-09-12T13:30:34.717Z,41.31
2022-09-12T13:33:27.363Z,41.49
2022-09-12T13:36:24.065Z,41.01
2022-09-12T13:39:15.441Z,40.09
2022-09-12T13:41:51.095Z,39.92
2022-09-12T13:44:21.677Z,39.98
2022-09-12T13:46:48.970Z,40.55
2022-09-12T13:49:20.722Z,42.62
2022-09-12T13:52:01.729Z,40.09
2022-09-12T13:54:29.022Z,40.38
2022-09-12T13:56:55.555Z,41.04
2022-09-12T13:59:21.956Z,41.58
2022-09-12T14:01:49.144Z,41.41
2022-09-12T14:04:43.689Z,40.87
2022-09-12T14:07:20.930Z,40.53
2022-09-12T14:09:55.857Z,40.75
2022-09-12T14:12:28.489Z,40.03
2022-09-12T14:14:55.054Z,42.56
2022-09-12T14:17:31.635Z,40.52
2022-09-12T14:20:05.416Z,42.29
2022-09-12T14:22:34.123Z,42.17
2022-09-12T14:25:01.951Z,41.31
2022-09-12T14:27:50.703Z,41.28
2022-09-12T14:30:32.543Z,41.58
2022-09-12T14:33:11.056Z,41.19
2022-09-12T14:35:43.450Z,42.24
2022-09-12T14:38:34.468Z,42.00
2022-09-12T14:41:06.248Z,42.55
2022-09-12T14:43:36.076Z,41.53
2022-09-12T14:46:05.169Z,40.56
2022-09-12T14:48:46.764Z,41.48
2022-09-12T14:51:21.305Z,41.74
2022-09-12T14:53:49.441Z,41.68
2022-09-12T14:56:16.028Z,42.45
2022-09-12T14:58:43.111Z,41.65
2022-09-12T15:01:12.253Z,42.08
2022-09-12T15:03:43.939Z,41.52
2022-09-12T15:06:30.807Z,41.24
2022-09-12T15:09:02.389Z,41.42
2022-09-12T15:11:29.256Z,42.95
2022-09-12T15:13:55.663Z,43.30
2022-09-12T15:16:22.215Z,43.33
2022-09-12T15:18:48.755Z,42.94
2022-09-12T15:21:20.448Z,43.84
2022-09-12T15:23:48.691Z,42.84
2022-09-12T15:26:21.983Z,43.83
2022-09-12T15:28:49.181Z,43.28
2022-09-12T15:31:32.883Z,44.14
2022-09-12T15:34:01.559Z,42.98
2022-09-12T15:36:28.987Z,43.03
2022-09-12T15:38:55.981Z,43.41
2022-09-12T15:41:31.173Z,43.01
2022-09-12T15:43:58.110Z,43.22
2022-09-12T15:46:24.893Z,42.92
2022-09-12T15:48:51.432Z,43.45
2022-09-12T15:51:20.585Z,43.47
2022-09-12T15:53:48.814Z,43.70
2022-09-12T15:56:21.204Z,44.13
2022-09-12T15:58:58.083Z,45.04
2022-09-12T16:01:25.756Z,44.79
2022-09-12T16:03:52.296Z,45.17
2022-09-12T16:06:18.740Z,44.99
2022-09-12T16:08:45.344Z,45.05
2022-09-12T16:11:26.361Z,44.16
2022-09-12T16:13:54.123Z,45.29
2022-09-12T16:16:20.863Z,45.16
2022-09-12T16:18:47.480Z,44.20
2022-09-12T16:21:15.565Z,45.18
2022-09-12T16:23:43.775Z,45.35
2022-09-12T16:26:10.391Z,44.30
2022-09-12T16:28:37.089Z,44.82
2022-09-12T16:31:06.611Z,44.67
2022-09-12T16:33:33.499Z,44.55
2022-09-12T16:36:03.366Z,44.73
2022-09-12T16:38:30.287Z,45.66
2022-09-12T16:41:00.931Z,45.20
2022-09-12T16:43:27.368Z,44.56
2022-09-12T16:46:05.790Z,45.29
2022-09-12T16:48:36.444Z,45.31
2022-09-12T16:51:06.817Z,45.59
2022-09-12T16:53:35.082Z,46.29
2022-09-12T16:56:01.651Z,46.16
2022-09-12T16:58:28.204Z,46.15
2022-09-12T17:01:02.800Z,46.24
2022-09-12T17:03:29.963Z,46.07
2022-09-12T17:06:08.169Z,46.67
2022-09-12T17:08:37.263Z,46.28
2022-09-12T17:11:11.481Z,46.40
2022-09-12T17:14:02.715Z,46.98
2022-09-12T17:16:26.453Z,46.98
2022-09-12T17:18:53.667Z,47.25
2022-09-12T17:21:21.172Z,48.09
2022-09-12T17:23:48.379Z,48.02
2022-09-12T17:26:15.068Z,48.01
2022-09-12T17:28:42.120Z,48.66
2022-09-12T17:31:11.019Z,48.48
2022-09-12T17:33:38.060Z,48.49
2022-09-12T17:36:07.697Z,48.33
2022-09-12T17:38:36.030Z,49.02
2022-09-12T17:41:11.362Z,49.34
2022-09-12T17:43:38.090Z,50.54
2022-09-12T17:46:05.085Z,50.88
2022-09-12T17:48:32.398Z,51.08
2022-09-12T17:50:59.287Z,52.01
2022-09-12T17:53:25.830Z,52.32
2022-09-12T17:55:54.362Z,53.48
2022-09-12T17:58:21.083Z,53.32
2022-09-12T18:01:06.009Z,54.31
2022-09-12T18:03:35.034Z,55.08
2022-09-12T18:06:01.505Z,54.46
2022-09-12T18:08:27.939Z,56.46
2022-09-12T18:10:54.411Z,56.40
2022-09-12T18:13:20.881Z,57.05
2022-09-12T18:15:47.335Z,56.00
2022-09-12T18:18:13.813Z,56.01
2022-09-12T18:20:49.910Z,58.51
2022-09-12T18:23:16.364Z,57.08
2022-09-12T18:25:42.802Z,58.04
2022-09-12T18:28:09.369Z,59.52
2022-09-12T18:30:35.832Z,59.53
2022-09-12T18:33:02.335Z,58.22
2022-09-12T18:35:28.742Z,58.04
2022-09-12T18:37:55.693Z,58.24
2022-09-12T18:40:22.192Z,59.28
2022-09-12T18:42:49.072Z,60.34
2022-09-12T18:45:15.593Z,60.96
2022-09-12T18:47:42.020Z,61.21
2022-09-12T18:50:09.070Z,61.18
2022-09-12T18:52:35.571Z,60.98
2022-09-12T18:55:02.026Z,62.57
2022-09-12T18:57:30.516Z,62.36
2022-09-12T18:59:59.581Z,63.67
2022-09-12T19:02:28.486Z,63.82
2022-09-12T19:04:54.919Z,64.67
2022-09-12T19:07:21.441Z,62.63
2022-09-12T19:09:48.082Z,62.87
2022-09-12T19:12:14.506Z,63.15
2022-09-12T19:14:41.093Z,63.22
2022-09-12T19:17:07.987Z,63.32
2022-09-12T19:19:37.656Z,65.45
2022-09-12T19:22:06.892Z,65.17
2022-09-12T19:24:33.800Z,65.66
2022-09-12T19:27:00.248Z,64.95
2022-09-12T19:29:26.686Z,65.45
2022-09-12T19:31:53.152Z,66.38
2022-09-12T19:34:19.589Z,67.34
2022-09-12T19:36:47.260Z,67.07
2022-09-12T19:39:16.065Z,67.45
2022-09-12T19:41:43.808Z,65.78
2022-09-12T19:44:11.405Z,65.71
2022-09-12T19:46:38.177Z,66.14
2022-09-12T19:49:04.710Z,66.20
2022-09-12T19:51:34.130Z,66.25
2022-09-12T19:54:00.699Z,67.90
2022-09-12T19:56:27.307Z,68.13
2022-09-12T19:58:56.612Z,69.83
2022-09-12T20:01:30.143Z,71.21
2022-09-12T20:03:58.134Z,68.99
2022-09-12T20:06:25.233Z,69.36
2022-09-12T20:08:51.778Z,69.76
2022-09-12T20:11:19.705Z,69.74
2022-09-12T20:13:46.875Z,68.91
2022-09-12T20:16:22.007Z,70.25
2022-09-12T20:18:54.894Z,70.80
2022-09-12T20:21:31.249Z,69.97
2022-09-12T20:24:15.790Z,71.92
2022-09-12T20:26:42.331Z,70.79
2022-09-12T20:29:09.598Z,72.48
2022-09-12T20:31:38.540Z,71.18
2022-09-12T20:34:05.798Z,71.97
2022-09-12T20:36:32.457Z,72.92
2022-09-12T20:39:01.211Z,71.18
2022-09-12T20:41:30.296Z,72.57
2022-09-12T20:43:57.695Z,73.27
2022-09-12T20:46:26.219Z,72.94
2022-09-12T20:48:53.276Z,72.37
2022-09-12T20:51:21.101Z,73.20
2022-09-12T20:53:48.261Z,72.41
2022-09-12T20:56:15.026Z,72.01
2022-09-12T20:58:44.091Z,73.72
2022-09-12T21:01:13.516Z,73.33
2022-09-12T21:03:44.092Z,74.35
2022-09-12T21:06:12.592Z,73.33
2022-09-12T21:08:39.473Z,73.07
2022-09-12T21:11:06.509Z,73.23
2022-09-12T21:13:33.053Z,73.41
2022-09-12T21:16:05.454Z,74.37
2022-09-12T21:18:33.150Z,74.86
2022-09-12T21:20:59.954Z,73.96
2022-09-12T21:23:27.732Z,73.73
2022-09-12T21:25:54.638Z,73.69
2022-09-12T21:28:21.483Z,75.62
2022-09-12T21:30:49.553Z,75.82
2022-09-12T21:33:16.358Z,73.93
2022-09-12T21:35:42.801Z,74.15
2022-09-12T21:38:09.324Z,75.75
2022-09-12T21:40:35.777Z,75.56
2022-09-12T21:43:02.425Z,75.32
2022-09-12T21:45:29.195Z,76.31
2022-09-12T21:47:55.657Z,75.78
2022-09-12T21:50:22.070Z,74.96
2022-09-12T21:52:48.477Z,75.57
2022-09-12T21:55:15.036Z,75.94
2022-09-12T21:57:41.872Z,75.89
2022-09-12T22:00:12.923Z,76.22
2022-09-12T22:02:39.467Z,74.88
2022-09-12T22:05:14.684Z,77.12
2022-09-12T22:07:41.157Z,75.84
2022-09-12T22:10:08.063Z,76.28
2022-09-12T22:12:34.570Z,76.47
2022-09-12T22:15:12.787Z,77.19
2022-09-12T22:17:47.369Z,77.13
2022-09-12T22:20:13.766Z,77.14
2022-09-12T22:22:58.719Z,77.68
2022-09-12T22:25:25.878Z,76.78
2022-09-12T22:27:52.778Z,76.26
2022-09-12T22:30:20.879Z,76.15
2022-09-12T22:32:49.685Z,76.09
2022-09-12T22:35:17.201Z,76.28
2022-09-12T22:37:44.197Z,76.64
2022-09-12T22:40:11.912Z,75.31
2022-09-12T22:42:38.665Z,73.89
2022-09-12T22:45:06.125Z,73.06
2022-09-12T22:47:33.072Z,72.19
2022-09-12T22:49:59.705Z,71.51
2022-09-12T22:52:26.425Z,71.48
2022-09-12T22:54:53.471Z,70.67
2022-09-12T22:57:19.986Z,70.24
2022-09-12T22:59:46.589Z,70.66
2022-09-12T23:02:13.136Z,70.59
2022-09-12T23:04:39.971Z,69.73
2022-09-12T23:07:06.623Z,69.76
2022-09-12T23:09:35.389Z,69.81
2022-09-12T23:12:02.458Z,69.77
2022-09-12T23:14:28.857Z,70.22
2022-09-12T23:16:55.404Z,69.77
2022-09-12T23:19:21.857Z,69.71
2022-09-12T23:21:48.328Z,69.92
2022-09-12T23:24:14.827Z,69.34
2022-09-12T23:26:41.245Z,69.92
2022-09-12T23:29:08.801Z,70.19
2022-09-12T23:31:35.353Z,70.57
2022-09-12T23:34:05.855Z,70.43
2022-09-12T23:36:32.759Z,69.82
2022-09-12T23:38:59.304Z,69.91
2022-09-12T23:41:25.774Z,70.25
2022-09-12T23:43:52.267Z,70.49
2022-09-12T23:46:22.373Z,70.20
2022-09-12T23:48:49.358Z,69.52
2022-09-12T23:51:16.438Z,69.95
2022-09-12T23:53:43.011Z,70.00
2022-09-12T23:56:09.621Z,70.25
2022-09-12T23:58:36.260Z,69.45
